メインページ
METAR-TAF:

METAR-TAF

空港 :

オスロ空港

オスロ, ノルウェー

緯度: 60-12N, 経度: 011-05E, 海抜: 208m

現時点の気象観測

当レポートは33分前の03:20(UTC)に作成
の風 3kt
気温 0°C
湿度 100%
気圧 989 hPa
視程: 8000m
高度500ftの千切れ雲あり
小雪, 雨

METAR: ENGM 130320Z 09003KT 8000 -SNRA BKN005 00/00 Q0989

時間: 04:53 (03:53 UTC)

予報

予報は13日の 00時(UTC)から 13日の 24時(UTC)まで有効
の風 8kt
視程: 9000m
高度400ftの雲は散在している
高度1200ftの千切れ雲あり
小雨
13日の 00時(UTC)から 13日の 24時(UTC)まで一時的に
視程: 2000m
高度400ftの曇り
小雪, 雨, 靄
確率 30%
13日の 00時(UTC)から 13日の 08時(UTC)まで
視程: 0800m
高度100ftの
着氷性の霧

TAF: ENGM 1300/1324 17008KT 9000 -RA SCT004 BKN012 TEMPO 1300/1324 2000 -SNRA BR OVC004 PROB30 1300/1308 0800 FZFG VV001

4,000以上の空港の気象観測と天気予報(METAR報とTAF報)

利用可能な観測所は地図上に黄色い丸と赤い丸で示す。

丸の上にカーソルを重ねると観測所名を参照できる。

次にクリックすると気象観測と天気予報を参照できる。

マップの切り替え:黒色「×」印の緑ボタンをクリックして拡大、「-」印の緑ボタンをクリックして縮小、緑色の三角印をクリックして隣りの地図に切り替え


METAR-TAF: